AirNav   Bose Proflight Series 2 Wireless Aviation Headset
 
 1451 users online  

PA79 Tinicum Farms Heliport
Erwinna, Pennsylvania, USA

GOING TO ERWINNA?


FAA INFORMATION EFFECTIVE 07 NOVEMBER 2019

Location

FAA Identifier: PA79
Lat/Long: 40-31-45.3680N 075-05-58.6190W
40-31.756133N 075-05.976983W
40.5292689,-75.0996164
(estimated)
Elevation: 280 ft. / 85 m (estimated)
Variation: 12W (1985)
From city: 1 mile NW of ERWINNA, PA
Time zone: UTC -5 (UTC -4 during Daylight Saving Time)
Zip code: 18972

Heliport Operations

Heliport use: Private use. Permission required prior to landing
Activation date: 03/1976
Control tower: no
ARTCC: NEW YORK CENTER
FSS: WILLIAMSPORT FLIGHT SERVICE STATION
Attendance: UNATNDD
Wind indicator: no
Segmented circle: no

Heliport Communications

WX ASOS at DYL (12 nm S): 118.875 (215-345-0392)
WX AWOS-3 at CKZ (12 nm SW): 126.325 (215-257-7291)
WX AWOS-3 at UKT (14 nm SW): 119.475 (215-538-7610)
WX ASOS at ABE (17 nm NW): PHONE 610-266-3579
WX AWOS-3 at XLL (18 nm W): 127.875 (610-231-3111)

Nearby radio navigation aids

VOR radial/distance  VOR name  Freq  Var
SBJr269/16.6SOLBERG VOR/DME112.9010W
ARDr342/18.7YARDLEY VOR/DME108.2010W
FJCr136/20.0ALLENTOWN VORTAC117.5010W
BWZr229/20.5BROADWAY VOR/DME114.2011W
ETXr106/26.8EAST TEXAS VOR/DME110.2009W
PTWr058/28.0POTTSTOWN VORTAC116.5009W
STWr212/29.9STILLWATER VOR/DME109.6011W
RBVr315/33.9ROBBINSVILLE VORTAC113.8010W
GXUr336/38.8MC GUIRE VORTAC110.6012W

 
NDB name  Hdg/Dist  Freq  Var  ID
AMBLER031/25.627512WING .. -. --.
CHATHAM260/33.025413WCAT -.-. .- -

Heliport Services

Runway Information

Helipad H1

Dimensions: 525 x 285 ft. / 160 x 87 m
Surface: turf, in fair condition
Latitude: 40-31.756133N
Longitude: 075-05.976983W
Elevation: 280.0 ft.
Traffic pattern: leftleft
Markings: none, in fair condition

Heliport Ownership and Management from official FAA records

Ownership: Privately-owned
Owner: JANET L. K. RUTTENBERG
75 UPPER TINICUM CHURCH RD
ERWINNA, PA 18920
Phone 610-294-9270
Manager: TARY LEONARD
TINICUM FARMS, 75 UPPER TINICUM CHURCH RD
ERWINNA, PA 18920
Phone 610-294-9270
CELL# 267-328-7222

Additional Remarks

A52-H1 20' PLINE 320' EAST OF PAD RUNNING N/S.
FOR CD CTC ALLENTOWN APCH AT 800-728-6322.

Instrument Procedures

There are no published instrument procedures at PA79.

Some nearby airports with instrument procedures:

N85 - Alexandria Airport (5 nm NE)
N40 - Sky Manor Airport (6 nm E)
KDYL - Doylestown Airport (12 nm S)
KCKZ - Pennridge Airport (12 nm SW)
KUKT - Quakertown Airport (14 nm SW)
N43 - Braden Airpark (14 nm NW)
N51 - Solberg-Hunterdon Airport (17 nm E)
KABE - Lehigh Valley International Airport (17 nm NW)
KXLL - Allentown Queen City Municipal Airport (18 nm W)
 
Loc | Ops | Rwys | IFR | FBO | Links
Com | Nav | Svcs | Stats | Notes
Area around PA79 (Tinicum Farms Heliport)
 
Road maps at: MapQuest Bing Google
 
Aerial photo
No photo
 
Sectional chart

 
Airport distance calculator
Flying to Tinicum Farms Heliport? Find the distance to fly.

From to PA79

Sunrise and sunset
Times for 12-Nov-2019
 Local
(UTC-5)
 Zulu
(UTC)
Morning civil twilight06:1511:15
Sunrise06:4411:44
Sunset16:4521:45
Evening civil twilight17:1422:14

Current date and time
Zulu (UTC)  12-Nov-2019 16:22:57
Local (UTC-5)  12-Nov-2019 11:22:57
 
METAR
KDYL 
12nm S 
121554Z AUTO 32014G21KT 10SM OVC070 02/M04 A2992 RMK AO2 SLP136 T00171039
KCKZ 
12nm SW 
121555Z AUTO 32006G16KT 10SM BKN025 00/M04 A2994 RMK AO2
KUKT 
14nm SW 
121600Z AUTO 30008G15KT 10SM SCT028 SCT044 01/M04 A2994 RMK A01
KABE 
18nm NW 
121551Z 33013G19KT 10SM BKN029 OVC095 02/M05 A2995 RMK AO2 SLP146 T00171050
KXLL 
18nm W 
121555Z AUTO 33013G18KT 10SM BKN029 BKN060 OVC075 01/M03 A2997 RMK AO2 P0002
KTTN 
20nm SE 
ASOS 133.70 609-538-8690
121553Z 31014G21KT 10SM BKN022 BKN049 OVC065 02/M02 A2991 RMK AO2 RAE20UPB14E19 SLP125 P0000 T00221017
KSMQ 
20nm E 
ASOS 120.60 908-722-2139
121553Z AUTO 32014G19KT 10SM FEW030 OVC075 03/M03 A2991 RMK AO2 SLP128 T00281028 $
TAF
KABE 
18nm NW 
121331Z 1214/1312 31011G19KT P6SM VCSH SCT020 OVC060 TEMPO 1214/1215 BKN020 FM121500 32012G22KT P6SM BKN050 FM121800 33015G25KT P6SM SCT150 FM130100 33012G19KT P6SM SKC FM130800 30008KT P6SM SKC
KTTN 
20nm SE 
121315Z 1213/1312 31011G19KT P6SM -RA BKN025 OVC060 TEMPO 1213/1215 6SM -RA BR BKN018 FM121500 32012G19KT P6SM OVC050 FM122000 33015G25KT P6SM SCT150 FM130100 33012G20KT P6SM SKC FM130600 33010KT P6SM SKC
NOTAMs
Click for the latest NOTAMs
NOTAMs are issued by the DoD/FAA and will open in a separate window not controlled by AirNav.

 

 
 

Would you like to see your business listed on this page?

 If your business provides an interesting product or service to pilots, flight crews, aircraft, or users of the Tinicum Farms Heliport, you should consider listing it here.  To start the listing process, click on the button below
 
Add a business
 

Other Pages about Tinicum Farms Heliport

Update a link
 
Copyright © AirNav, LLC. All rights reserved. Privacy Policy  Contact